Time;durP1;ratioP1;P1;durP2;ratioP2;P2;SDS_P1;SDS_P2;PMS_P1;PMS_P2;Temp;Humidity;BMP_temperature;BMP_pressure;BME280_temperature;BME280_humidity;BME280_pressure;Samples;Min_cycle;Max_cycle;Signal;HPM_P1;HPM_P2
2021/08/30 00:00:43;;;;;;;9.85;7.85;;;;;;;17.16;68.55;95135.06;5030706;28;20046;-67
2021/08/30 00:03:08;;;;;;;10.80;8.32;;;;;;;17.04;68.83;95127.81;5030631;28;20049;-67
2021/08/30 00:05:33;;;;;;;8.70;7.43;;;;;;;16.64;70.24;95128.69;5030447;28;20107;-69
2021/08/30 00:07:59;;;;;;;12.57;8.32;;;;;;;16.92;69.24;95127.91;5030631;28;20048;-67
2021/08/30 00:10:25;;;;;;;9.07;7.80;;;;;;;16.33;71.11;95123.22;5030806;28;20017;-67
2021/08/30 00:12:52;;;;;;;11.60;8.27;;;;;;;17.34;68.27;95114.75;5030484;28;20106;-67
2021/08/30 00:15:18;;;;;;;8.70;7.80;;;;;;;16.89;69.71;95115.94;5030525;28;20068;-66
2021/08/30 00:17:45;;;;;;;9.98;7.22;;;;;;;16.59;70.73;95128.16;5030220;28;20852;-66
2021/08/30 00:20:15;;;;;;;9.55;7.47;;;;;;;16.64;70.87;95117.94;5030610;28;20061;-69
2021/08/30 00:22:41;;;;;;;10.30;6.72;;;;;;;16.76;70.13;95108.28;5030696;28;20119;-67
2021/08/30 00:25:07;;;;;;;13.90;9.02;;;;;;;17.45;68.30;95117.69;5031770;28;20092;-67
2021/08/30 00:27:32;;;;;;;9.57;7.93;;;;;;;16.81;69.90;95106.13;5029858;28;20037;-68
2021/08/30 00:29:57;;;;;;;12.00;6.88;;;;;;;16.37;70.94;95114.13;5030425;28;20036;-67
2021/08/30 00:32:23;;;;;;;11.48;9.00;;;;;;;16.94;69.18;95104.19;5030212;28;20038;-67
2021/08/30 00:34:49;;;;;;;9.57;7.97;;;;;;;17.24;68.77;95119.88;5029748;28;20479;-67
2021/08/30 00:37:14;;;;;;;8.85;6.65;;;;;;;16.07;72.59;95131.63;5031914;28;20029;-67
2021/08/30 00:39:40;;;;;;;10.48;8.15;;;;;;;17.22;67.87;95079.13;5029674;28;20063;-68
2021/08/30 00:42:05;;;;;;;8.82;7.70;;;;;;;16.58;70.48;95103.22;5029884;28;20026;-67
2021/08/30 00:44:30;;;;;;;10.15;8.23;;;;;;;17.45;68.09;95098.09;5030037;28;20076;-67
2021/08/30 00:46:56;;;;;;;8.82;7.95;;;;;;;16.91;69.09;95085.25;5029925;28;20042;-67
2021/08/30 00:49:22;;;;;;;8.18;7.28;;;;;;;16.64;70.29;95104.50;5030992;28;20026;-67
2021/08/30 00:51:50;;;;;;;7.75;6.95;;;;;;;16.71;69.27;95093.19;5030041;28;20117;-67
2021/08/30 00:54:15;;;;;;;7.70;7.00;;;;;;;16.93;69.66;95096.44;5029268;28;20045;-67
2021/08/30 00:56:40;;;;;;;6.88;6.05;;;;;;;16.27;70.60;95070.88;5029289;28;20107;-67
2021/08/30 00:59:08;;;;;;;6.93;6.32;;;;;;;16.74;69.75;95103.28;5029878;28;20128;-67
2021/08/30 01:01:34;;;;;;;6.97;6.28;;;;;;;16.82;69.79;95091.56;5029737;28;20033;-67
2021/08/30 01:03:59;;;;;;;10.05;6.18;;;;;;;16.63;69.85;95102.97;5031656;28;20029;-67
2021/08/30 01:06:41;;;;;;;7.95;6.85;;;;;;;17.26;68.73;95113.03;5029361;28;20395;-67
2021/08/30 01:09:24;;;;;;;10.05;8.05;;;;;;;17.34;66.44;95065.59;5029331;28;20029;-67
2021/08/30 01:12:00;;;;;;;9.63;7.40;;;;;;;17.26;67.20;95074.63;5027877;28;20575;-67
2021/08/30 01:14:32;;;;;;;9.25;7.40;;;;;;;16.68;69.10;95068.91;5029307;28;20073;-66
2021/08/30 01:16:58;;;;;;;9.73;7.55;;;;;;;17.05;67.84;95105.22;5029336;28;20030;-67
2021/08/30 01:19:34;;;;;;;8.15;7.00;;;;;;;16.06;71.08;95081.78;5030039;28;20071;-67
2021/08/30 01:22:03;;;;;;;9.50;7.82;;;;;;;17.24;67.58;95072.25;5029666;28;20077;-67
2021/08/30 01:24:28;;;;;;;9.00;7.90;;;;;;;17.06;67.74;95079.13;5028836;28;20033;-66
2021/08/30 01:26:56;;;;;;;8.45;7.13;;;;;;;16.55;69.16;95074.34;5044361;28;20033;-67
2021/08/30 01:29:36;;;;;;;11.60;8.60;;;;;;;16.67;68.55;95057.38;5029399;28;20265;-67
2021/08/30 01:32:07;;;;;;;14.07;9.35;;;;;;;16.63;68.06;95035.00;5029040;28;20037;-67
2021/08/30 01:34:33;;;;;;;9.27;7.82;;;;;;;16.93;68.00;95059.59;5028747;28;20049;-69
2021/08/30 01:36:59;;;;;;;10.68;8.20;;;;;;;16.94;68.66;95104.19;5030779;28;20036;-67
2021/08/30 01:39:31;;;;;;;12.73;9.80;;;;;;;17.77;66.40;95090.81;5027447;28;20491;-67
2021/08/30 01:41:59;;;;;;;9.32;7.10;;;;;;;16.22;69.84;95042.38;5043875;28;20038;-67
2021/08/30 01:44:26;;;;;;;10.23;7.95;;;;;;;16.42;68.84;95016.44;5028368;28;20704;-68
2021/08/30 01:46:52;;;;;;;12.40;9.10;;;;;;;16.57;68.19;95026.44;5028396;28;20697;-68
2021/08/30 01:49:19;;;;;;;11.35;8.10;;;;;;;16.52;68.94;95039.34;5031047;28;20026;-68
2021/08/30 01:51:48;;;;;;;13.60;8.77;;;;;;;17.29;66.24;95033.59;5028497;28;20491;-68
2021/08/30 01:54:14;;;;;;;14.00;8.98;;;;;;;17.50;66.78;95070.94;5026499;28;20596;-68
2021/08/30 01:56:46;;;;;;;14.07;9.05;;;;;;;16.69;68.82;95040.94;5027984;28;20032;-68
2021/08/30 02:01:57;;;;;;;13.68;9.90;;;;;;;17.58;66.93;95068.06;5027953;28;20143;-68
2021/08/30 02:04:22;;;;;;;13.43;9.70;;;;;;;17.78;65.00;95070.84;5030149;28;20539;-68
2021/08/30 02:06:47;;;;;;;15.13;9.85;;;;;;;18.00;64.81;95082.84;5027794;28;20045;-69
2021/08/30 02:09:13;;;;;;;16.15;9.25;;;;;;;17.41;66.93;95063.84;5028153;28;20045;-68
2021/08/30 02:11:39;;;;;;;12.90;9.52;;;;;;;17.35;66.44;95062.56;5028351;28;20534;-68
2021/08/30 02:14:08;;;;;;;12.20;9.75;;;;;;;17.95;65.11;95048.13;5027976;28;20029;-69
2021/08/30 02:16:35;;;;;;;12.07;8.85;;;;;;;17.98;65.28;95058.97;5026661;28;20090;-69
2021/08/30 02:19:11;;;;;;;18.48;8.80;;;;;;;16.92;67.28;95009.69;5030094;28;20026;-69
2021/08/30 02:21:40;;;;;;;13.63;9.02;;;;;;;17.82;65.92;95067.09;5028204;28;20050;-69
2021/08/30 02:24:15;;;;;;;12.15;9.80;;;;;;;17.08;67.24;95053.44;5027787;28;20030;-69
2021/08/30 02:27:02;;;;;;;13.02;9.30;;;;;;;16.40;70.00;95050.16;5027759;28;20037;-69
2021/08/30 02:29:36;;;;;;;13.75;9.25;;;;;;;16.75;68.54;95040.38;5028125;28;20498;-69
2021/08/30 02:32:04;;;;;;;17.13;10.57;;;;;;;17.83;66.09;95041.75;5027905;28;20049;-69
2021/08/30 02:34:31;;;;;;;19.73;9.82;;;;;;;17.19;67.26;95012.63;5043167;28;20379;-69
2021/08/30 02:36:59;;;;;;;21.98;11.80;;;;;;;18.27;65.64;95054.16;5029953;28;20033;-68
2021/08/30 02:39:26;;;;;;;23.08;12.35;;;;;;;18.16;65.06;95059.31;5027722;28;20125;-68
2021/08/30 02:41:52;;;;;;;17.73;11.50;;;;;;;17.47;66.74;95034.00;5027979;28;20562;-68
2021/08/30 02:44:18;;;;;;;16.05;10.98;;;;;;;17.31;67.08;95058.22;5027925;28;20033;-68
2021/08/30 02:46:45;;;;;;;19.17;11.48;;;;;;;17.21;66.93;95013.84;5027780;28;20112;-68
2021/08/30 02:49:12;;;;;;;17.20;11.50;;;;;;;17.36;67.59;95031.84;5029012;28;20024;-68
2021/08/30 02:51:38;;;;;;;21.73;12.20;;;;;;;18.41;64.43;95036.38;5027955;28;20033;-68
2021/08/30 02:54:05;;;;;;;16.85;10.90;;;;;;;17.74;65.75;95043.06;5027344;28;20072;-69
2021/08/30 02:56:31;;;;;;;27.40;13.15;;;;;;;18.10;64.64;95018.47;5019797;28;20125;-67
2021/08/30 02:58:57;;;;;;;22.73;11.10;;;;;;;16.98;68.35;95018.25;5027861;28;20115;-68
2021/08/30 03:01:23;;;;;;;18.95;11.80;;;;;;;17.15;66.10;94991.06;5028603;28;20109;-67
2021/08/30 03:03:49;;;;;;;19.50;12.18;;;;;;;17.33;65.97;95011.03;5027956;28;20041;-68
2021/08/30 03:06:16;;;;;;;18.48;10.93;;;;;;;16.74;67.94;95005.81;5027402;28;20124;-68
2021/08/30 03:08:41;;;;;;;21.25;12.70;;;;;;;17.46;66.01;95027.84;5027827;28;20034;-67
2021/08/30 03:11:10;;;;;;;19.35;12.52;;;;;;;17.41;66.61;95030.81;5027843;28;20076;-68
2021/08/30 03:13:39;;;;;;;20.45;11.63;;;;;;;17.43;67.08;95039.28;5030666;28;20047;-67
2021/08/30 03:16:05;;;;;;;16.02;11.05;;;;;;;16.76;68.76;95039.22;5033192;28;20029;-68
2021/08/30 03:18:32;;;;;;;19.33;11.93;;;;;;;16.61;69.51;95039.97;5030723;28;20029;-67
2021/08/30 03:20:58;;;;;;;25.25;13.85;;;;;;;17.46;66.76;94992.91;5031312;28;20037;-67
2021/08/30 03:23:25;;;;;;;18.55;12.27;;;;;;;17.17;65.21;94947.69;5031282;28;20120;-67
2021/08/30 03:25:52;;;;;;;18.60;11.55;;;;;;;16.65;67.46;94952.22;5030124;28;20045;-68
2021/08/30 03:28:19;;;;;;;22.85;12.00;;;;;;;17.75;65.67;94974.69;5033075;28;20375;-68
2021/08/30 03:30:47;;;;;;;20.77;13.00;;;;;;;17.79;64.87;95050.88;5031105;28;20065;-67
2021/08/30 03:33:13;;;;;;;21.67;13.18;;;;;;;17.99;64.65;95020.16;5028743;28;20134;-68
2021/08/30 03:35:40;;;;;;;22.42;13.82;;;;;;;18.26;63.55;94999.53;5029420;28;20468;-67
2021/08/30 03:38:06;;;;;;;15.60;11.13;;;;;;;17.21;66.88;95026.50;5029763;28;20071;-68
2021/08/30 03:40:32;;;;;;;21.27;11.88;;;;;;;17.83;64.65;94966.41;5030864;28;20032;-67
2021/08/30 03:42:59;;;;;;;22.38;12.85;;;;;;;17.76;64.03;94971.66;5032732;28;20029;-68
2021/08/30 03:45:27;;;;;;;16.85;9.85;;;;;;;16.60;67.42;94969.38;5030572;28;20558;-68
2021/08/30 03:47:54;;;;;;;16.70;10.20;;;;;;;17.27;66.96;95025.09;5030492;28;20029;-68
2021/08/30 03:50:19;;;;;;;14.73;9.50;;;;;;;17.23;66.54;94989.28;5030774;28;20045;-68
2021/08/30 03:52:46;;;;;;;19.27;10.63;;;;;;;17.38;65.43;94972.34;5030946;28;20026;-69
2021/08/30 03:55:13;;;;;;;20.40;10.40;;;;;;;18.19;65.49;95034.41;5032144;28;20029;-68
2021/08/30 03:57:39;;;;;;;21.42;10.35;;;;;;;17.25;66.53;94995.09;5030375;28;20502;-68
2021/08/30 04:00:06;;;;;;;15.32;9.20;;;;;;;17.37;65.82;95019.19;5031216;28;20037;-69
2021/08/30 04:02:33;;;;;;;14.02;9.05;;;;;;;17.13;68.47;95015.56;5029440;28;20041;-68
2021/08/30 04:04:59;;;;;;;26.42;11.95;;;;;;;17.14;66.62;94994.84;5030705;28;20057;-68
2021/08/30 04:07:26;;;;;;;13.30;8.95;;;;;;;17.09;66.92;94979.75;5032332;28;20495;-69
2021/08/30 04:09:52;;;;;;;15.98;9.15;;;;;;;16.85;67.81;94988.81;5030441;28;20072;-69
2021/08/30 04:12:19;;;;;;;14.18;8.90;;;;;;;17.95;65.72;95018.53;5029011;28;20069;-69
2021/08/30 04:14:46;;;;;;;17.48;8.77;;;;;;;17.24;67.59;95004.28;5030030;28;20038;-68
2021/08/30 04:17:11;;;;;;;14.35;8.38;;;;;;;16.82;67.84;94988.72;5045357;28;20046;-68
2021/08/30 04:19:37;;;;;;;13.68;8.32;;;;;;;17.56;66.37;95005.78;5029316;28;20021;-68
2021/08/30 04:22:03;;;;;;;12.77;7.95;;;;;;;17.62;65.30;94987.47;5032212;28;20030;-69
2021/08/30 04:24:28;;;;;;;10.15;7.43;;;;;;;17.90;64.69;95001.53;5028852;28;20033;-71
2021/08/30 04:26:54;;;;;;;14.98;7.78;;;;;;;18.45;64.49;94979.88;5029940;28;20194;-71
2021/08/30 04:29:19;;;;;;;9.07;7.60;;;;;;;18.16;64.03;94998.19;5045622;28;20072;-71
2021/08/30 04:31:45;;;;;;;12.73;8.30;;;;;;;18.09;64.50;94981.13;5030332;28;20025;-71
2021/08/30 04:34:10;;;;;;;15.43;8.02;;;;;;;18.70;63.91;94981.13;5032264;28;20120;-71
2021/08/30 04:36:35;;;;;;;9.88;7.38;;;;;;;19.01;63.03;94984.69;5045630;28;20513;-71
2021/08/30 04:39:01;;;;;;;9.10;7.13;;;;;;;19.00;62.00;94972.38;5030537;28;20099;-71
2021/08/30 04:41:26;;;;;;;13.07;7.68;;;;;;;19.28;62.51;94984.72;5044902;28;20049;-70
2021/08/30 04:43:52;;;;;;;9.32;7.30;;;;;;;17.90;64.83;94955.78;5045361;28;20037;-71
2021/08/30 04:46:18;;;;;;;9.60;7.30;;;;;;;18.83;62.94;94987.09;5031746;28;20539;-71
2021/08/30 04:48:43;;;;;;;12.40;7.75;;;;;;;18.64;63.47;94969.06;5030123;28;20029;-72
2021/08/30 04:51:09;;;;;;;9.20;6.88;;;;;;;18.53;62.26;94981.56;5030071;28;20053;-71
2021/08/30 04:53:34;;;;;;;10.68;6.80;;;;;;;19.03;62.38;94974.31;5029846;28;20065;-71
2021/08/30 04:56:00;;;;;;;9.00;6.88;;;;;;;18.79;62.50;94969.34;5028932;28;20049;-70
2021/08/30 04:58:25;;;;;;;10.25;7.20;;;;;;;18.00;63.93;94996.72;5031576;28;20036;-70
2021/08/30 05:00:50;;;;;;;8.38;6.32;;;;;;;18.04;63.71;94957.97;5028588;28;20030;-72
2021/08/30 05:03:16;;;;;;;7.35;6.18;;;;;;;17.70;65.28;94973.03;5045066;28;20522;-72
2021/08/30 05:05:42;;;;;;;11.02;7.30;;;;;;;18.48;64.00;94975.69;5042643;28;20060;-70
2021/08/30 05:08:07;;;;;;;7.07;6.30;;;;;;;18.55;63.40;94960.44;5028135;28;20116;-70
2021/08/30 05:10:32;;;;;;;8.00;5.57;;;;;;;17.19;66.64;94981.13;5029772;28;20083;-69
2021/08/30 05:12:58;;;;;;;7.15;5.55;;;;;;;17.15;66.74;94989.13;5031638;28;20085;-73
2021/08/30 05:15:23;;;;;;;10.80;7.70;;;;;;;17.58;66.21;94967.78;5033458;28;20088;-73
2021/08/30 05:17:52;;;;;;;7.53;6.50;;;;;;;18.38;64.62;94967.06;5045174;28;20045;-73
2021/08/30 05:20:18;;;;;;;9.85;7.10;;;;;;;18.35;63.71;94967.78;5029783;28;20495;-73
2021/08/30 05:22:45;;;;;;;14.40;7.07;;;;;;;17.94;64.20;94966.63;5028039;28;20025;-73
2021/08/30 05:25:11;;;;;;;10.63;7.10;;;;;;;17.69;65.46;94960.72;5046009;28;20075;-73
2021/08/30 05:27:36;;;;;;;11.00;7.30;;;;;;;18.13;64.98;94965.84;5029122;28;20073;-73
2021/08/30 05:30:02;;;;;;;9.65;6.85;;;;;;;17.31;66.90;94964.91;5027776;28;20065;-72
2021/08/30 05:32:30;;;;;;;10.07;6.00;;;;;;;16.73;67.43;94966.63;5029273;28;20069;-73
2021/08/30 05:34:56;;;;;;;9.10;6.55;;;;;;;17.90;65.75;94966.53;5027935;28;20029;-73
2021/08/30 05:37:21;;;;;;;10.50;7.63;;;;;;;17.76;65.30;94984.31;5031046;28;20071;-73
2021/08/30 05:39:47;;;;;;;6.95;6.03;;;;;;;17.08;66.83;94953.25;5028738;28;20037;-73
2021/08/30 05:42:14;;;;;;;10.45;6.70;;;;;;;17.92;65.18;94947.38;5027349;28;20567;-73
2021/08/30 05:44:39;;;;;;;6.28;5.30;;;;;;;17.30;66.15;94967.94;5027717;28;20519;-73
2021/08/30 05:47:05;;;;;;;8.88;6.38;;;;;;;17.89;64.75;94935.38;5028710;28;20076;-72
2021/08/30 05:49:30;;;;;;;6.47;5.53;;;;;;;17.80;65.02;94939.44;5044508;28;20074;-73
2021/08/30 05:51:56;;;;;;;8.35;6.10;;;;;;;18.03;63.71;94937.59;5029317;28;20175;-73
2021/08/30 05:54:21;;;;;;;8.45;5.90;;;;;;;18.69;63.11;94962.63;5043801;28;20080;-73
2021/08/30 05:56:46;;;;;;;9.13;5.93;;;;;;;17.99;65.00;94946.72;5028214;28;20042;-73
2021/08/30 05:59:12;;;;;;;6.07;5.22;;;;;;;18.18;63.74;94942.09;5027909;28;20045;-72
2021/08/30 06:01:38;;;;;;;7.05;5.43;;;;;;;18.01;63.65;94944.44;5028849;28;20475;-72
2021/08/30 06:04:04;;;;;;;10.13;6.70;;;;;;;18.36;63.54;94958.56;5045938;28;20036;-72
2021/08/30 06:06:29;;;;;;;5.68;4.88;;;;;;;17.65;65.65;94936.41;5043608;28;20042;-72
2021/08/30 06:08:55;;;;;;;8.90;5.35;;;;;;;17.36;65.94;94964.63;5028781;28;20057;-74
2021/08/30 06:11:20;;;;;;;12.50;6.40;;;;;;;17.83;65.97;94954.88;5026714;28;20120;-73
2021/08/30 06:13:46;;;;;;;5.55;4.53;;;;;;;16.58;68.80;94941.28;5028606;28;20022;-75
2021/08/30 06:16:11;;;;;;;5.82;4.40;;;;;;;16.98;69.32;94949.19;5030214;28;20052;-73
2021/08/30 06:18:36;;;;;;;6.18;5.45;;;;;;;17.62;66.65;94955.19;5044161;28;20042;-72
2021/08/30 06:21:02;;;;;;;6.07;4.15;;;;;;;16.46;70.19;94954.81;5027692;28;20032;-73
2021/08/30 06:23:29;;;;;;;7.25;5.15;;;;;;;16.75;70.40;94951.72;5027318;28;20487;-73
2021/08/30 06:25:54;;;;;;;7.45;4.75;;;;;;;17.17;67.27;94935.03;5027431;28;20045;-74
2021/08/30 06:28:20;;;;;;;5.65;4.30;;;;;;;16.61;69.60;94930.63;5030297;28;20029;-74
2021/08/30 06:30:45;;;;;;;5.10;4.40;;;;;;;16.58;69.23;94936.72;5043800;28;20068;-73
2021/08/30 06:33:10;;;;;;;3.90;3.42;;;;;;;16.40;70.20;94935.50;5044066;28;20049;-73
2021/08/30 06:35:38;;;;;;;5.85;3.55;;;;;;;16.17;71.04;94946.00;5028167;28;20526;-73
2021/08/30 06:38:04;;;;;;;5.43;4.05;;;;;;;16.26;71.21;94967.34;5043657;28;20068;-72
2021/08/30 06:40:29;;;;;;;4.78;3.15;;;;;;;16.13;71.06;94966.63;5043575;28;20494;-73
2021/08/30 06:42:54;;;;;;;5.15;3.90;;;;;;;16.18;71.42;94954.88;5030826;28;20666;-73
2021/08/30 06:45:23;;;;;;;6.90;2.55;;;;;;;15.79;72.60;94973.34;5029654;28;20037;-73
2021/08/30 06:47:49;;;;;;;7.10;3.15;;;;;;;16.22;71.55;94971.81;5031200;28;20084;-73
2021/08/30 06:50:15;;;;;;;7.32;4.22;;;;;;;16.53;70.38;94947.72;5047720;28;20033;-74
2021/08/30 06:52:40;;;;;;;10.40;4.97;;;;;;;16.80;69.44;94940.72;5047458;28;20502;-73
2021/08/30 06:55:06;;;;;;;5.07;4.22;;;;;;;16.76;69.46;94950.59;5032465;28;20396;-73
2021/08/30 06:57:35;;;;;;;26.65;4.47;;;;;;;17.19;68.87;94945.41;5030554;28;20038;-73
2021/08/30 07:00:01;;;;;;;9.75;3.50;;;;;;;16.74;69.11;94949.41;5032320;28;20045;-74
2021/08/30 07:02:26;;;;;;;3.13;2.78;;;;;;;16.31;70.93;94956.34;5032182;28;20033;-73
2021/08/30 07:04:52;;;;;;;3.70;3.33;;;;;;;16.71;70.47;94963.47;5030046;28;20436;-75
2021/08/30 07:07:17;;;;;;;3.92;2.05;;;;;;;15.96;72.72;94975.72;5033901;28;20056;-73
2021/08/30 07:09:42;;;;;;;4.55;2.65;;;;;;;16.23;72.45;95002.91;5031060;28;20102;-73
2021/08/30 07:12:08;;;;;;;11.25;2.08;;;;;;;15.81;73.35;95011.31;5031680;28;20487;-73
2021/08/30 07:14:33;;;;;;;7.22;3.55;;;;;;;16.39;72.01;95014.47;5045630;28;20079;-72
2021/08/30 07:16:59;;;;;;;5.25;3.45;;;;;;;16.65;70.92;94995.19;5029471;28;20029;-75
2021/08/30 07:19:24;;;;;;;6.80;2.80;;;;;;;16.84;70.90;95021.41;5048963;28;20028;-71
2021/08/30 07:21:49;;;;;;;5.43;2.22;;;;;;;16.60;70.12;94988.16;5046850;28;20084;-71
2021/08/30 07:24:15;;;;;;;4.75;2.58;;;;;;;16.91;69.19;95026.94;5045833;28;20061;-69
2021/08/30 07:26:40;;;;;;;18.77;2.85;;;;;;;16.95;68.67;95029.72;5030564;28;20040;-70
2021/08/30 07:29:06;;;;;;;4.40;2.95;;;;;;;17.04;68.38;95020.34;5031447;28;20037;-69
2021/08/30 07:31:31;;;;;;;11.68;2.58;;;;;;;16.78;68.81;95012.03;5029764;28;20032;-69
2021/08/30 07:33:57;;;;;;;41.17;4.00;;;;;;;17.30;67.48;95016.31;5033474;28;20434;-69
2021/08/30 07:36:22;;;;;;;10.35;3.80;;;;;;;17.70;66.64;95016.06;5030290;28;20095;-69
2021/08/30 07:38:48;;;;;;;15.90;3.50;;;;;;;17.50;67.91;95042.13;5030939;28;20068;-69
2021/08/30 07:41:14;;;;;;;6.30;3.03;;;;;;;17.35;67.70;95021.44;5030625;28;20049;-69
2021/08/30 07:43:39;;;;;;;5.63;3.88;;;;;;;16.83;68.45;94991.03;5030462;28;20025;-69
2021/08/30 07:46:05;;;;;;;5.45;3.78;;;;;;;17.33;67.89;95029.84;5032705;28;20052;-70
2021/08/30 07:48:30;;;;;;;24.23;5.30;;;;;;;17.76;66.22;94990.50;5030869;28;20491;-69
2021/08/30 07:50:56;;;;;;;7.45;4.05;;;;;;;17.33;68.91;95051.34;5030811;28;20034;-69
2021/08/30 07:53:26;;;;;;;11.00;3.28;;;;;;;17.19;68.30;95050.25;5031404;28;20073;-73
2021/08/30 07:55:52;;;;;;;5.85;3.13;;;;;;;17.17;68.66;95053.28;5030095;28;20041;-72
2021/08/30 07:58:18;;;;;;;9.38;4.50;;;;;;;17.35;68.65;95069.81;5031811;28;20033;-72
2021/08/30 08:00:43;;;;;;;4.97;4.05;;;;;;;17.32;67.48;94987.19;5030624;28;20129;-70
2021/08/30 08:03:08;;;;;;;3.72;3.42;;;;;;;17.70;67.30;95077.16;5030359;28;20049;-70
2021/08/30 08:05:34;;;;;;;4.20;3.63;;;;;;;17.63;67.01;95007.84;5045181;28;20050;-69
2021/08/30 08:08:01;;;;;;;5.72;3.53;;;;;;;17.44;66.88;95000.50;5030492;28;20045;-68
2021/08/30 08:10:27;;;;;;;4.43;4.03;;;;;;;17.36;67.41;95018.41;5032190;28;20048;-68
2021/08/30 08:12:52;;;;;;;5.68;3.78;;;;;;;17.64;67.92;95065.88;5030516;28;20068;-69
2021/08/30 08:15:17;;;;;;;3.95;3.40;;;;;;;17.35;66.96;95027.63;5030181;28;20404;-71
2021/08/30 08:17:43;;;;;;;4.82;3.20;;;;;;;17.50;66.53;95025.22;5045353;28;20521;-72
2021/08/30 08:20:09;;;;;;;3.22;2.92;;;;;;;17.63;67.04;95040.91;5045586;28;20033;-67
2021/08/30 08:22:35;;;;;;;3.47;2.75;;;;;;;17.89;65.07;95013.44;5030297;28;20075;-67
2021/08/30 08:25:05;;;;;;;3.83;3.42;;;;;;;18.39;65.43;95070.19;5032248;28;20030;-67
2021/08/30 08:27:31;;;;;;;6.10;3.70;;;;;;;18.90;63.83;95081.56;5029916;28;20058;-68
2021/08/30 08:29:57;;;;;;;4.70;3.40;;;;;;;19.46;63.63;95094.44;5030153;28;20033;-68
2021/08/30 08:32:22;;;;;;;3.45;3.15;;;;;;;19.51;61.64;95066.38;5030153;28;20033;-68
2021/08/30 08:34:48;;;;;;;2.90;2.70;;;;;;;19.41;61.66;95075.88;5029839;28;20533;-68
2021/08/30 08:37:13;;;;;;;3.92;2.90;;;;;;;18.84;63.50;95103.78;5031574;28;20022;-68
2021/08/30 08:39:39;;;;;;;3.30;3.00;;;;;;;18.75;63.78;95062.81;5029498;28;20037;-70
2021/08/30 08:42:04;;;;;;;4.53;3.45;;;;;;;18.73;63.73;95054.28;5027642;28;20036;-69
2021/08/30 08:44:30;;;;;;;3.05;2.83;;;;;;;18.76;62.74;95043.56;5029423;28;20033;-72
2021/08/30 08:46:55;;;;;;;3.90;3.50;;;;;;;20.35;61.32;95099.56;5029996;28;20069;-70
2021/08/30 08:49:21;;;;;;;3.75;3.45;;;;;;;19.64;60.55;95051.56;5031370;28;20048;-71
2021/08/30 08:51:47;;;;;;;3.53;3.10;;;;;;;19.90;60.83;95066.19;5029557;28;20034;-72
2021/08/30 08:54:13;;;;;;;2.33;2.13;;;;;;;18.59;62.22;95068.25;5028186;28;20049;-72
2021/08/30 08:56:39;;;;;;;1.77;1.55;;;;;;;18.76;63.72;95067.81;5029233;28;20037;-73
2021/08/30 08:59:04;;;;;;;2.63;1.60;;;;;;;19.41;61.58;95088.56;5029534;28;20029;-72
2021/08/30 09:01:35;;;;;;;1.50;1.38;;;;;;;19.95;61.46;95111.75;5029310;28;20033;-72
2021/08/30 09:04:01;;;;;;;1.70;1.60;;;;;;;21.04;58.76;95083.75;5031555;28;20048;-72
2021/08/30 09:06:40;;;;;;;2.03;1.10;;;;;;;18.56;61.71;95102.06;5029255;28;20582;-72
2021/08/30 09:09:09;;;;;;;0.90;0.90;;;;;;;17.76;65.66;95100.00;5028290;28;20084;-71
2021/08/30 09:11:41;;;;;;;1.73;1.02;;;;;;;18.88;63.48;95126.94;5029277;28;20041;-72
2021/08/30 09:14:18;;;;;;;0.88;0.85;;;;;;;17.91;65.37;95123.38;5027705;28;20368;-71
2021/08/30 09:16:44;;;;;;;0.90;0.70;;;;;;;17.68;66.36;95145.53;5027736;28;20052;-71
2021/08/30 09:19:12;;;;;;;0.70;0.70;;;;;;;18.75;65.30;95143.63;5031479;28;20447;-70
2021/08/30 09:21:47;;;;;;;0.93;0.80;;;;;;;19.03;63.85;95141.47;5029113;28;20564;-69
2021/08/30 09:24:15;;;;;;;1.50;0.68;;;;;;;19.30;62.48;95142.34;5028631;28;20041;-69
2021/08/30 09:26:49;;;;;;;0.65;0.65;;;;;;;19.01;61.83;95132.19;5028300;28;20108;-70
2021/08/30 09:29:22;;;;;;;0.82;0.65;;;;;;;18.88;62.40;95150.41;5028798;28;20495;-67
2021/08/30 09:32:11;;;;;;;1.83;0.82;;;;;;;19.78;61.80;95147.38;5028912;28;20033;-68
2021/08/30 09:34:44;;;;;;;0.40;0.40;;;;;;;19.70;59.72;95143.78;5027407;28;20033;-69
2021/08/30 09:37:22;;;;;;;0.68;0.60;;;;;;;20.37;59.52;95135.06;5031108;28;20026;-69
2021/08/30 09:39:57;;;;;;;0.40;0.40;;;;;;;20.22;59.25;95143.00;5028907;28;20410;-69
2021/08/30 09:42:24;;;;;;;0.70;0.70;;;;;;;20.35;58.31;95137.38;5028448;28;20514;-70
2021/08/30 09:44:49;;;;;;;0.77;0.60;;;;;;;20.00;58.35;95143.84;5043290;28;20064;-68
2021/08/30 09:47:18;;;;;;;0.75;0.52;;;;;;;19.54;60.40;95132.31;5028067;28;20668;-68
2021/08/30 09:49:51;;;;;;;0.73;0.57;;;;;;;19.74;59.17;95134.59;5028674;28;20026;-68
2021/08/30 09:52:23;;;;;;;0.55;0.55;;;;;;;19.66;60.13;95141.03;5030746;28;20431;-67
2021/08/30 09:54:50;;;;;;;0.60;0.50;;;;;;;20.13;60.70;95142.50;5028265;28;20044;-68
2021/08/30 09:57:16;;;;;;;0.55;0.55;;;;;;;20.59;57.48;95128.84;5027690;28;20083;-68
2021/08/30 09:59:46;;;;;;;0.45;0.45;;;;;;;20.82;56.95;95115.19;5027207;28;20539;-67
2021/08/30 10:02:14;;;;;;;1.02;0.63;;;;;;;21.52;56.00;95108.94;5028051;28;20495;-67
2021/08/30 10:04:40;;;;;;;0.60;0.60;;;;;;;20.14;57.49;95140.56;5027987;28;20136;-68
2021/08/30 10:07:07;;;;;;;0.73;0.70;;;;;;;21.08;57.34;95140.56;5028961;28;20025;-67
2021/08/30 10:09:33;;;;;;;0.50;0.50;;;;;;;20.95;55.64;95142.75;5028190;28;20036;-67
2021/08/30 10:11:59;;;;;;;1.63;0.50;;;;;;;20.18;58.11;95125.19;5027743;28;20038;-67
2021/08/30 10:14:26;;;;;;;1.00;0.50;;;;;;;20.26;58.29;95141.13;5027412;28;20053;-67
2021/08/30 10:16:54;;;;;;;1.05;0.50;;;;;;;20.16;58.08;95133.66;5027977;28;20037;-67
2021/08/30 10:19:37;;;;;;;0.73;0.40;;;;;;;21.28;58.22;95136.50;5030019;28;20107;-67
2021/08/30 10:22:16;;;;;;;1.00;0.60;;;;;;;21.22;56.16;95146.13;5028194;28;20053;-67
2021/08/30 10:24:42;;;;;;;0.30;0.30;;;;;;;19.64;59.23;95131.72;5027802;28;20041;-66
2021/08/30 10:27:10;;;;;;;0.80;0.70;;;;;;;20.00;57.83;95123.00;5027723;28;20127;-67
2021/08/30 10:29:38;;;;;;;0.60;0.60;;;;;;;20.12;57.96;95134.78;5027912;28;20037;-67
2021/08/30 10:32:05;;;;;;;1.95;0.60;;;;;;;21.35;56.83;95125.03;5027603;28;20045;-67
2021/08/30 10:34:33;;;;;;;1.98;1.00;;;;;;;22.02;56.35;95135.59;5042907;28;20378;-68
2021/08/30 10:37:00;;;;;;;0.70;0.70;;;;;;;22.10;56.46;95128.28;5029902;28;20040;-68
2021/08/30 10:39:42;;;;;;;2.22;0.88;;;;;;;20.66;56.00;95152.47;5028365;28;20060;-67
2021/08/30 10:42:14;;;;;;;8.60;2.38;;;;;;;19.28;61.86;95152.69;5027513;28;20033;-67
2021/08/30 10:44:56;;;;;;;2.95;2.55;;;;;;;19.05;63.82;95151.91;5027271;28;20547;-67
2021/08/30 10:47:32;;;;;;;12.77;2.08;;;;;;;18.64;63.93;95159.56;5027776;28;20124;-66
2021/08/30 10:49:57;;;;;;;5.30;3.80;;;;;;;19.72;62.21;95161.19;5027911;28;20044;-67
2021/08/30 10:52:23;;;;;;;3.88;3.45;;;;;;;19.34;63.02;95142.38;5029803;28;20030;-67
2021/08/30 10:54:58;;;;;;;14.85;4.32;;;;;;;19.56;63.06;95155.09;5026317;28;20041;-66
2021/08/30 10:57:35;;;;;;;8.43;4.40;;;;;;;19.41;63.25;95135.19;5027343;28;20036;-66
2021/08/30 11:00:02;;;;;;;7.88;3.90;;;;;;;19.02;62.00;95069.03;5027703;28;20026;-67
2021/08/30 11:02:45;;;;;;;4.40;3.60;;;;;;;18.99;63.58;95172.19;5027472;28;20045;-67
2021/08/30 11:05:11;;;;;;;3.50;3.20;;;;;;;19.18;63.79;95170.25;5027508;28;20080;-67
2021/08/30 11:07:37;;;;;;;2.90;2.38;;;;;;;19.49;62.35;95176.56;5027567;28;20139;-67
2021/08/30 11:10:05;;;;;;;3.42;3.22;;;;;;;20.12;60.42;95162.56;5029789;28;20305;-67
2021/08/30 11:12:30;;;;;;;3.05;2.75;;;;;;;20.25;61.65;95182.78;5027277;28;20033;-67
2021/08/30 11:14:57;;;;;;;3.38;3.17;;;;;;;20.88;59.23;95158.88;5026725;28;20072;-67
2021/08/30 11:17:40;;;;;;;3.78;3.47;;;;;;;20.26;60.30;95154.63;5027228;28;20045;-67
2021/08/30 11:20:07;;;;;;;4.20;3.90;;;;;;;20.71;58.20;95162.94;5027660;28;20483;-67
2021/08/30 11:22:33;;;;;;;4.07;3.78;;;;;;;20.76;59.20;95176.91;5026853;28;20056;-67
2021/08/30 11:25:00;;;;;;;4.43;4.13;;;;;;;21.23;59.87;95182.84;5027993;28;20472;-67
2021/08/30 11:27:29;;;;;;;3.30;3.10;;;;;;;20.45;60.32;95175.34;5027064;28;20041;-67
2021/08/30 11:30:00;;;;;;;3.83;3.03;;;;;;;20.41;58.76;95185.31;5027176;28;20033;-67
2021/08/30 11:32:31;;;;;;;2.80;2.60;;;;;;;21.23;57.60;95189.03;5028236;28;20049;-67